Time;durP1;ratioP1;P1;durP2;ratioP2;P2;SDS_P1;SDS_P2;PMS_P1;PMS_P2;Temp;Humidity;BMP_temperature;BMP_pressure;BME280_temperature;BME280_humidity;BME280_pressure;Samples;Min_cycle;Max_cycle;Signal;HPM_P1;HPM_P2
2023/11/05 00:00:28;;;;;;;16.10;9.50;;;;;;;8.27;100.00;95818.52;110252;1245;60482;-64
2023/11/05 00:03:18;;;;;;;13.80;9.70;;;;;;;8.15;100.00;95822.12;110209;1241;60535;-64
2023/11/05 00:05:48;;;;;;;;;;;;;;;8.05;100.00;95829.42;110230;1240;71709;-64
2023/11/05 00:08:18;;;;;;;25.10;13.50;;;;;;;7.96;100.00;95835.06;110235;1241;69177;-65
2023/11/05 00:10:48;;;;;;;20.00;13.10;;;;;;;7.88;100.00;95835.73;110205;1241;69072;-65
2023/11/05 00:13:20;;;;;;;18.40;11.10;;;;;;;7.80;100.00;95837.66;110236;1241;60611;-64
2023/11/05 00:15:54;;;;;;;15.70;10.70;;;;;;;7.67;100.00;95834.81;110294;1240;60528;-65
2023/11/05 00:18:25;;;;;;;15.20;9.70;;;;;;;7.58;100.00;95839.25;110104;1240;72182;-65
2023/11/05 00:20:57;;;;;;;15.30;9.50;;;;;;;7.51;100.00;95839.01;110104;1240;69117;-64
2023/11/05 00:23:27;;;;;;;16.00;9.40;;;;;;;7.44;100.00;95837.13;110142;1241;69166;-64
2023/11/05 00:25:58;;;;;;;14.70;9.60;;;;;;;7.30;100.00;95841.05;110129;1242;60465;-64
2023/11/05 00:28:29;;;;;;;15.70;9.30;;;;;;;7.23;100.00;95848.83;110107;1241;60525;-65
2023/11/05 00:30:59;;;;;;;15.80;8.70;;;;;;;7.18;100.00;95853.06;110154;1240;71459;-65
2023/11/05 00:33:31;;;;;;;15.50;8.60;;;;;;;7.09;100.00;95859.27;110157;1241;68495;-65
2023/11/05 00:36:04;;;;;;;15.80;10.60;;;;;;;7.02;100.00;95865.95;110178;1242;69175;-65
2023/11/05 00:38:35;;;;;;;14.10;9.20;;;;;;;6.96;100.00;95873.89;110146;1242;60474;-66
2023/11/05 00:41:07;;;;;;;16.50;10.10;;;;;;;6.91;100.00;95870.33;110145;1242;60539;-65
2023/11/05 00:43:37;;;;;;;19.40;10.60;;;;;;;6.88;100.00;95863.15;110150;1248;71289;-65
2023/11/05 00:46:07;;;;;;;17.20;10.40;;;;;;;6.87;100.00;95856.27;110180;1243;70351;-65
2023/11/05 00:48:37;;;;;;;20.30;12.00;;;;;;;6.86;100.00;95844.95;110089;1243;69192;-64
2023/11/05 00:51:08;;;;;;;16.00;10.10;;;;;;;6.81;100.00;95846.94;110097;1242;60478;-65
2023/11/05 00:53:38;;;;;;;23.70;13.60;;;;;;;6.71;100.00;95853.95;110210;1241;60458;-63
2023/11/05 00:56:09;;;;;;;;;;;;;;;6.57;100.00;95851.27;110195;1240;71257;-64
2023/11/05 00:58:40;;;;;;;20.10;12.00;;;;;;;6.48;100.00;95855.98;110121;1242;69643;-66
2023/11/05 01:01:11;;;;;;;19.70;11.50;;;;;;;6.41;100.00;95859.67;110106;1240;68119;-66
2023/11/05 01:03:41;;;;;;;16.90;10.80;;;;;;;6.32;100.00;95866.98;110159;1242;61018;-64
2023/11/05 01:06:11;;;;;;;14.40;9.60;;;;;;;6.25;100.00;95862.55;110234;1241;60414;-64
2023/11/05 01:08:40;;;;;;;17.40;10.30;;;;;;;6.20;100.00;95859.32;110282;1241;72756;-66
2023/11/05 01:11:10;;;;;;;17.30;10.50;;;;;;;6.18;100.00;95863.11;110272;1241;68726;-66
2023/11/05 01:13:40;;;;;;;17.80;11.40;;;;;;;6.16;100.00;95861.20;110220;1241;69954;-66
2023/11/05 01:16:10;;;;;;;19.60;11.20;;;;;;;6.13;100.00;95867.66;110251;1241;60543;-66
2023/11/05 01:18:41;;;;;;;22.30;13.70;;;;;;;6.09;100.00;95868.29;110164;1240;60497;-64
2023/11/05 01:21:12;;;;;;;18.50;11.90;;;;;;;6.02;100.00;95866.48;110142;1242;72199;-65
2023/11/05 01:23:42;;;;;;;19.00;10.90;;;;;;;5.98;100.00;95872.66;110133;1245;68495;-64
2023/11/05 01:26:13;;;;;;;18.50;10.40;;;;;;;5.94;100.00;95876.23;110209;1240;69401;-66
2023/11/05 01:28:44;;;;;;;21.80;11.30;;;;;;;5.91;100.00;95877.51;110221;1241;60478;-66
2023/11/05 01:31:16;;;;;;;18.10;10.60;;;;;;;5.90;100.00;95877.92;110275;1241;60499;-66
2023/11/05 01:33:46;;;;;;;15.80;9.80;;;;;;;5.83;100.00;95881.58;110316;1239;72212;-66
2023/11/05 01:36:16;;;;;;;21.30;12.10;;;;;;;5.74;100.00;95879.34;110249;1241;69210;-65
2023/11/05 01:38:46;;;;;;;19.80;12.10;;;;;;;5.71;100.00;95874.61;110157;1241;69922;-65
2023/11/05 01:41:16;;;;;;;;;;;;;;;5.66;100.00;95874.25;110311;1239;60570;-65
2023/11/05 01:43:48;;;;;;;20.10;11.10;;;;;;;5.63;100.00;95875.50;110157;1240;60569;-64
2023/11/05 01:46:18;;;;;;;19.80;11.40;;;;;;;5.59;100.00;95877.39;110299;1239;72289;-64
2023/11/05 01:48:49;;;;;;;18.90;10.80;;;;;;;5.52;100.00;95879.30;110324;1240;69378;-65
2023/11/05 01:51:20;;;;;;;16.60;10.30;;;;;;;5.46;100.00;95881.70;110259;1241;69279;-65
2023/11/05 01:53:55;;;;;;;18.20;9.50;;;;;;;5.42;100.00;95879.92;110168;1242;60481;-66
2023/11/05 01:56:27;;;;;;;17.40;9.90;;;;;;;5.43;100.00;95880.16;110422;1241;60511;-65
2023/11/05 01:58:59;;;;;;;23.40;12.70;;;;;;;5.46;100.00;95884.27;110168;1241;70464;-65
2023/11/05 02:01:28;;;;;;;27.60;14.00;;;;;;;5.47;100.00;95892.16;110236;1241;69076;-65
2023/11/05 02:03:59;;;;;;;22.40;12.50;;;;;;;5.44;100.00;95892.54;110154;1241;68689;-65
2023/11/05 02:06:30;;;;;;;25.70;14.40;;;;;;;5.39;100.00;95893.29;110118;1240;60534;-64
2023/11/05 02:09:03;;;;;;;21.80;11.90;;;;;;;5.33;100.00;95903.20;110125;1245;60609;-65
2023/11/05 02:11:35;;;;;;;22.10;11.60;;;;;;;5.29;100.00;95904.56;110195;1240;70464;-65
2023/11/05 02:14:05;;;;;;;19.70;10.20;;;;;;;5.25;100.00;95899.32;110121;1240;69296;-65
2023/11/05 02:16:35;;;;;;;22.70;12.60;;;;;;;5.20;100.00;95897.66;110160;1241;68707;-65
2023/11/05 02:19:06;;;;;;;22.10;12.20;;;;;;;5.11;100.00;95896.38;110131;1243;60502;-65
2023/11/05 02:22:02;;;;;;;18.30;10.30;;;;;;;5.06;100.00;95907.47;110111;1240;60540;-65
2023/11/05 02:24:32;;;;;;;19.00;10.30;;;;;;;5.04;100.00;95913.00;110180;1246;72789;-66
2023/11/05 02:27:02;;;;;;;18.50;11.00;;;;;;;5.07;100.00;95910.82;110275;1241;69760;-65
2023/11/05 02:29:33;;;;;;;21.30;11.70;;;;;;;5.05;100.00;95910.17;110159;1240;69126;-66
2023/11/05 02:32:03;;;;;;;17.00;10.70;;;;;;;5.00;100.00;95913.41;110199;1242;60560;-65
2023/11/05 02:34:36;;;;;;;22.20;11.80;;;;;;;4.96;100.00;95916.31;110216;1242;60491;-66
2023/11/05 02:37:07;;;;;;;19.10;10.80;;;;;;;4.94;100.00;95917.23;110407;1239;71034;-65
2023/11/05 02:39:39;;;;;;;19.30;10.50;;;;;;;4.95;100.00;95914.02;110291;1240;69192;-64
2023/11/05 02:42:08;;;;;;;;;;;;;;;4.92;100.00;95919.23;110310;1241;69423;-64
2023/11/05 02:44:39;;;;;;;15.20;8.50;;;;;;;4.85;100.00;95919.27;110305;1240;60545;-66
2023/11/05 02:47:11;;;;;;;19.40;11.80;;;;;;;4.80;100.00;95919.25;110297;1241;60465;-64
2023/11/05 02:49:41;;;;;;;;;;;;;;;4.74;100.00;95919.17;110275;1241;71255;-65
2023/11/05 02:52:14;;;;;;;16.90;9.50;;;;;;;4.70;100.00;95917.59;110262;1240;69042;-66
2023/11/05 02:54:45;;;;;;;15.10;8.70;;;;;;;4.64;100.00;95915.91;110362;1241;69421;-66
2023/11/05 02:57:20;;;;;;;15.70;8.30;;;;;;;4.56;100.00;95914.95;110203;1241;60497;-66
2023/11/05 02:59:51;;;;;;;20.80;12.20;;;;;;;4.59;100.00;95919.56;110408;1240;60518;-66
2023/11/05 03:02:27;;;;;;;20.80;9.50;;;;;;;4.54;100.00;95919.40;110216;1244;72210;-66
2023/11/05 03:04:58;;;;;;;14.80;8.50;;;;;;;4.48;100.00;95915.52;110156;1243;69267;-65
2023/11/05 03:07:32;;;;;;;15.50;8.80;;;;;;;4.48;100.00;95914.35;110164;1242;67468;-65
2023/11/05 03:10:03;;;;;;;21.80;11.80;;;;;;;4.43;100.00;95906.63;110136;1240;60479;-65
2023/11/05 03:12:34;;;;;;;32.00;16.10;;;;;;;4.38;100.00;95887.80;110210;1240;60494;-65
2023/11/05 03:15:04;;;;;;;;;;;;;;;4.40;100.00;95884.56;110185;1242;71294;-66
2023/11/05 03:17:37;;;;;;;24.60;12.30;;;;;;;4.43;100.00;95888.18;110166;1240;68363;-65
2023/11/05 03:20:08;;;;;;;21.10;10.20;;;;;;;4.43;100.00;95882.27;110115;1244;69299;-65
2023/11/05 03:22:39;;;;;;;18.30;9.60;;;;;;;4.42;100.00;95870.24;110205;1241;60496;-66
2023/11/05 03:25:10;;;;;;;19.40;9.70;;;;;;;4.42;100.00;95857.02;110343;1241;60528;-64
2023/11/05 03:27:41;;;;;;;19.20;10.40;;;;;;;4.39;100.00;95850.27;110273;1241;72816;-64
2023/11/05 03:30:13;;;;;;;25.20;12.30;;;;;;;4.34;100.00;95847.08;110149;1242;68394;-64
2023/11/05 03:32:44;;;;;;;20.00;11.60;;;;;;;4.26;100.00;95835.38;110234;1241;68598;-64
2023/11/05 03:35:15;;;;;;;19.10;10.60;;;;;;;4.20;100.00;95832.38;110218;1241;60550;-64
2023/11/05 03:37:46;;;;;;;17.80;10.20;;;;;;;4.14;100.00;95837.15;110220;1240;60557;-64
2023/11/05 03:40:16;;;;;;;18.50;9.40;;;;;;;4.08;100.00;95840.13;110147;1240;71392;-65
2023/11/05 03:42:50;;;;;;;20.10;9.90;;;;;;;4.05;100.00;95849.60;110147;1242;69643;-64
2023/11/05 03:45:21;;;;;;;21.20;10.70;;;;;;;4.05;100.00;95839.09;110135;1240;69441;-64
2023/11/05 03:47:52;;;;;;;17.10;8.80;;;;;;;4.05;100.00;95842.42;110186;1245;60603;-65
2023/11/05 03:50:23;;;;;;;17.30;9.60;;;;;;;4.02;100.00;95845.73;110125;1242;60497;-64
2023/11/05 03:52:54;;;;;;;17.60;9.50;;;;;;;4.00;100.00;95849.32;110179;1239;71460;-64
2023/11/05 03:55:25;;;;;;;19.70;10.90;;;;;;;3.98;100.00;95855.70;110111;1241;69840;-64
2023/11/05 03:57:57;;;;;;;17.40;9.80;;;;;;;3.95;100.00;95863.67;110264;1241;68503;-65
2023/11/05 04:00:29;;;;;;;13.30;7.90;;;;;;;3.94;100.00;95868.33;110222;1241;60507;-64
2023/11/05 04:03:03;;;;;;;15.90;8.40;;;;;;;3.94;100.00;95865.29;110275;1241;60618;-64
2023/11/05 04:05:37;;;;;;;19.40;9.60;;;;;;;3.90;100.00;95866.60;110277;1241;71442;-64
2023/11/05 04:08:07;;;;;;;16.90;8.80;;;;;;;3.91;100.00;95863.75;110200;1241;68495;-67
2023/11/05 04:10:38;;;;;;;16.70;9.00;;;;;;;3.96;100.00;95858.57;110150;1243;68307;-64
2023/11/05 04:13:10;;;;;;;17.90;9.20;;;;;;;3.99;100.00;95861.83;110190;1240;60990;-65
2023/11/05 04:15:39;;;;;;;;;;;;;;;4.01;100.00;95866.13;110155;1244;60532;-64
2023/11/05 04:18:09;;;;;;;18.10;8.70;;;;;;;4.04;100.00;95867.31;110153;1240;72850;-65
2023/11/05 04:20:39;;;;;;;20.30;10.60;;;;;;;4.05;100.00;95867.55;110154;1240;69201;-65
2023/11/05 04:23:09;;;;;;;19.70;9.30;;;;;;;4.08;100.00;95874.94;110162;1241;69279;-65
2023/11/05 04:25:40;;;;;;;16.00;8.30;;;;;;;4.11;100.00;95880.92;110133;1242;60505;-64
2023/11/05 04:28:12;;;;;;;18.70;9.80;;;;;;;4.20;100.00;95879.65;110183;1242;60951;-65
2023/11/05 04:30:44;;;;;;;16.00;8.30;;;;;;;4.24;100.00;95882.95;110160;1242;72629;-63
2023/11/05 04:33:15;;;;;;;17.60;8.30;;;;;;;4.27;100.00;95883.80;110175;1243;69728;-64
2023/11/05 04:35:44;;;;;;;23.10;12.00;;;;;;;4.33;100.00;95887.86;110203;1240;69180;-65
2023/11/05 04:38:16;;;;;;;21.30;10.40;;;;;;;4.39;100.00;95885.69;110207;1242;60552;-65
2023/11/05 04:40:46;;;;;;;20.40;9.80;;;;;;;4.44;100.00;95889.45;110284;1241;60402;-66
2023/11/05 04:43:17;;;;;;;21.70;10.30;;;;;;;4.46;100.00;95891.84;110299;1240;71624;-65
2023/11/05 04:45:50;;;;;;;18.40;10.90;;;;;;;4.50;100.00;95895.41;110260;1239;68412;-64
2023/11/05 04:48:19;;;;;;;16.50;8.30;;;;;;;4.52;100.00;95893.89;110282;1241;68514;-65
2023/11/05 04:50:51;;;;;;;17.30;8.70;;;;;;;4.51;100.00;95897.37;110254;1240;60476;-65
2023/11/05 04:53:21;;;;;;;18.60;9.90;;;;;;;4.49;100.00;95893.90;110291;1241;60545;-65
2023/11/05 04:55:51;;;;;;;20.90;11.80;;;;;;;4.48;100.00;95895.34;110172;1240;71359;-67
2023/11/05 04:58:23;;;;;;;17.70;9.80;;;;;;;4.46;100.00;95892.89;110148;1242;69085;-65
2023/11/05 05:00:54;;;;;;;16.00;8.80;;;;;;;4.44;100.00;95891.84;110202;1240;68544;-65
2023/11/05 05:03:25;;;;;;;17.00;9.00;;;;;;;4.43;100.00;95894.00;110192;1243;60548;-65
2023/11/05 05:05:55;;;;;;;15.30;8.20;;;;;;;4.40;100.00;95889.07;110122;1241;60480;-65
2023/11/05 05:08:26;;;;;;;16.50;8.60;;;;;;;4.31;100.00;95877.24;110151;1240;72490;-64
2023/11/05 05:10:55;;;;;;;17.20;10.70;;;;;;;4.36;100.00;95873.14;110137;1240;69201;-66
2023/11/05 05:13:25;;;;;;;16.00;9.30;;;;;;;4.33;100.00;95868.09;110129;1243;69321;-65
2023/11/05 05:15:55;;;;;;;17.20;9.70;;;;;;;4.33;100.00;95868.88;110146;1242;60464;-65
2023/11/05 05:18:24;;;;;;;15.70;9.60;;;;;;;4.32;100.00;95865.84;110222;1242;60538;-65
2023/11/05 05:20:54;;;;;;;17.00;9.40;;;;;;;4.32;100.00;95872.84;110238;1241;72033;-65
2023/11/05 05:23:24;;;;;;;16.40;8.00;;;;;;;4.32;100.00;95872.33;110243;1240;70290;-65
2023/11/05 05:25:54;;;;;;;18.10;9.00;;;;;;;4.34;100.00;95878.75;110283;1241;68407;-64
2023/11/05 05:28:24;;;;;;;17.80;10.50;;;;;;;4.39;100.00;95878.73;110260;1244;60525;-64
2023/11/05 05:30:53;;;;;;;25.20;12.60;;;;;;;4.49;100.00;95879.58;110274;1239;60505;-65
2023/11/05 05:33:23;;;;;;;23.00;11.60;;;;;;;4.60;100.00;95869.61;110297;1240;72252;-64
2023/11/05 05:35:53;;;;;;;26.20;12.70;;;;;;;4.69;100.00;95867.46;110295;1240;68156;-64
2023/11/05 05:38:22;;;;;;;;;;;;;;;4.77;100.00;95858.70;110166;1240;69255;-64
2023/11/05 05:40:52;;;;;;;24.10;11.60;;;;;;;4.84;100.00;95852.34;110167;1243;60536;-64
2023/11/05 05:43:21;;;;;;;25.90;11.00;;;;;;;4.89;100.00;95841.25;110193;1242;60444;-64
2023/11/05 05:45:50;;;;;;;24.70;11.00;;;;;;;4.98;100.00;95846.65;110216;1240;73125;-64
2023/11/05 05:48:19;;;;;;;24.20;10.70;;;;;;;5.07;100.00;95849.02;110179;1241;69302;-64
2023/11/05 05:50:49;;;;;;;22.50;10.90;;;;;;;5.16;100.00;95842.54;110264;1240;68503;-64
2023/11/05 05:53:18;;;;;;;19.50;10.40;;;;;;;5.25;100.00;95835.05;110172;1242;60427;-64
2023/11/05 05:55:47;;;;;;;24.80;12.70;;;;;;;5.35;100.00;95835.30;110237;1241;60506;-64
2023/11/05 05:58:19;;;;;;;27.90;13.60;;;;;;;5.46;100.00;95822.73;110128;1242;72050;-64
2023/11/05 06:00:49;;;;;;;27.90;12.40;;;;;;;5.58;100.00;95813.83;110168;1241;69937;-64
2023/11/05 06:03:19;;;;;;;21.50;11.10;;;;;;;5.69;100.00;95814.77;110334;1241;69842;-64
2023/11/05 06:05:48;;;;;;;22.80;10.40;;;;;;;5.79;100.00;95814.30;110276;1241;60647;-64
2023/11/05 06:08:17;;;;;;;20.50;10.60;;;;;;;5.90;100.00;95811.66;110229;1241;60545;-64
2023/11/05 06:10:46;;;;;;;24.00;12.40;;;;;;;6.08;100.00;95806.48;110152;1242;72765;-64
2023/11/05 06:13:16;;;;;;;24.60;14.20;;;;;;;6.22;100.00;95799.63;110125;1244;69298;-65
2023/11/05 06:15:45;;;;;;;21.10;11.00;;;;;;;6.36;100.00;95807.83;110158;1243;69174;-64
2023/11/05 06:18:14;;;;;;;22.50;12.20;;;;;;;6.54;100.00;95805.36;110240;1240;60867;-64
2023/11/05 06:20:44;;;;;;;21.80;11.60;;;;;;;6.69;100.00;95804.78;110184;1240;60451;-63
2023/11/05 06:23:13;;;;;;;27.00;14.50;;;;;;;6.87;100.00;95797.98;110165;1239;71541;-65
2023/11/05 06:25:42;;;;;;;33.80;18.50;;;;;;;7.10;100.00;95793.70;110274;1239;69184;-64
2023/11/05 06:28:11;;;;;;;27.90;16.00;;;;;;;7.47;100.00;95792.16;110229;1239;69356;-65
2023/11/05 06:30:41;;;;;;;26.40;14.40;;;;;;;7.91;100.00;95788.48;110244;1240;60544;-65
2023/11/05 06:33:10;;;;;;;14.10;9.10;;;;;;;8.30;100.00;95781.55;110257;1240;60486;-65
2023/11/05 06:35:41;;;;;;;9.40;7.30;;;;;;;8.70;100.00;95768.05;110140;1240;72693;-65
2023/11/05 06:38:10;;;;;;;8.90;6.50;;;;;;;9.15;100.00;95762.39;110202;1241;70091;-65
2023/11/05 06:40:40;;;;;;;8.10;5.90;;;;;;;9.64;100.00;95756.05;110211;1243;69702;-64
2023/11/05 06:43:10;;;;;;;8.00;5.60;;;;;;;10.14;100.00;95747.24;110239;1241;60473;-64
2023/11/05 06:45:39;;;;;;;6.10;5.20;;;;;;;10.65;100.00;95743.21;110200;1240;60513;-64
2023/11/05 06:48:08;;;;;;;5.90;4.80;;;;;;;10.89;100.00;95734.59;110176;1241;72801;-64
2023/11/05 06:50:38;;;;;;;;;;;;;;;10.91;100.00;95725.50;110169;1242;69672;-64
2023/11/05 06:53:07;;;;;;;6.50;4.70;;;;;;;11.02;100.00;95718.98;110223;1241;69396;-64
2023/11/05 06:55:37;;;;;;;6.90;4.80;;;;;;;11.11;100.00;95718.86;110160;1242;60541;-65
2023/11/05 06:58:06;;;;;;;5.50;4.30;;;;;;;11.20;100.00;95720.41;110245;1242;60538;-65
2023/11/05 07:00:35;;;;;;;5.00;4.00;;;;;;;11.27;100.00;95726.40;110318;1241;73405;-65
2023/11/05 07:03:05;;;;;;;5.50;4.50;;;;;;;11.28;100.00;95731.15;110272;1241;69138;-66
2023/11/05 07:05:34;;;;;;;5.30;3.90;;;;;;;11.32;100.00;95726.23;110204;1240;69276;-67
2023/11/05 07:08:03;;;;;;;5.30;4.00;;;;;;;11.65;100.00;95722.13;110299;1240;60557;-64
2023/11/05 07:10:32;;;;;;;5.70;3.90;;;;;;;11.88;100.00;95737.88;110405;1241;60529;-64
2023/11/05 07:13:02;;;;;;;5.60;4.10;;;;;;;12.22;99.63;95740.28;110260;1241;72007;-64
2023/11/05 07:15:31;;;;;;;4.80;3.70;;;;;;;12.51;98.96;95741.02;110205;1242;69848;-66
2023/11/05 07:18:00;;;;;;;6.40;4.10;;;;;;;13.03;99.27;95739.27;110360;1240;68964;-66
2023/11/05 07:20:29;;;;;;;5.00;3.50;;;;;;;13.43;93.31;95740.45;110334;1241;60537;-66
2023/11/05 07:22:59;;;;;;;5.70;4.20;;;;;;;13.77;93.11;95737.79;110358;1241;60487;-65
2023/11/05 07:25:28;;;;;;;4.40;3.30;;;;;;;14.13;90.55;95736.40;110339;1240;71612;-65
2023/11/05 07:27:59;;;;;;;4.90;3.30;;;;;;;14.50;86.43;95730.31;110304;1241;68232;-66
2023/11/05 07:30:29;;;;;;;3.90;3.20;;;;;;;14.75;80.44;95731.75;110257;1244;69888;-66
2023/11/05 07:32:59;;;;;;;;;;;;;;;15.03;82.15;95728.86;110184;1242;60563;-65
2023/11/05 07:35:28;;;;;;;3.70;2.60;;;;;;;15.38;81.86;95734.02;110218;1244;60481;-67
2023/11/05 07:38:00;;;;;;;4.00;2.80;;;;;;;15.74;78.57;95731.33;110216;1241;72999;-64
2023/11/05 07:40:30;;;;;;;4.00;2.80;;;;;;;15.77;72.17;95731.34;110243;1241;68602;-64
2023/11/05 07:42:59;;;;;;;4.50;2.60;;;;;;;15.77;69.81;95739.05;110154;1240;68735;-64
2023/11/05 07:45:28;;;;;;;4.00;3.40;;;;;;;15.75;69.89;95728.59;110169;1240;60549;-65
2023/11/05 07:47:58;;;;;;;4.00;2.90;;;;;;;15.93;72.61;95728.59;110165;1240;60542;-65
2023/11/05 07:50:27;;;;;;;3.80;3.10;;;;;;;16.21;70.70;95727.70;110314;1240;72001;-65
2023/11/05 07:52:56;;;;;;;4.00;3.00;;;;;;;16.48;70.26;95723.56;110187;1241;69803;-65
2023/11/05 07:55:25;;;;;;;3.80;2.80;;;;;;;16.73;68.32;95717.96;110198;1240;69747;-64
2023/11/05 07:57:54;;;;;;;3.70;2.80;;;;;;;16.82;65.75;95704.81;110151;1240;60499;-65
2023/11/05 08:00:23;;;;;;;4.70;2.60;;;;;;;16.95;66.79;95687.84;110244;1243;60456;-65
2023/11/05 08:02:53;;;;;;;4.10;2.40;;;;;;;17.04;64.84;95683.84;110179;1243;73121;-64
2023/11/05 08:05:22;;;;;;;3.90;2.90;;;;;;;17.25;66.19;95673.13;110125;1240;69826;-67
2023/11/05 08:07:52;;;;;;;3.60;2.90;;;;;;;17.52;64.53;95669.70;110158;1243;68337;-65
2023/11/05 08:10:21;;;;;;;4.90;3.20;;;;;;;17.87;64.11;95669.23;110320;1242;60598;-64
2023/11/05 08:12:50;;;;;;;3.40;2.90;;;;;;;18.21;63.74;95661.45;110295;1241;60434;-65
2023/11/05 08:15:20;;;;;;;3.70;2.80;;;;;;;18.44;61.34;95653.13;110220;1240;71973;-65
2023/11/05 08:17:49;;;;;;;4.00;3.10;;;;;;;18.43;59.23;95642.09;110263;1241;69883;-64
2023/11/05 08:20:19;;;;;;;4.00;2.80;;;;;;;18.52;60.78;95638.34;110442;1241;69261;-64
2023/11/05 08:22:48;;;;;;;2.90;2.60;;;;;;;18.74;58.52;95633.52;110248;1239;60545;-65
2023/11/05 08:25:22;;;;;;;3.10;2.10;;;;;;;18.77;56.51;95630.70;110249;1241;60855;-64
2023/11/05 08:27:54;;;;;;;3.00;2.20;;;;;;;18.93;54.81;95627.50;110294;1241;72214;-64
2023/11/05 08:30:23;;;;;;;3.00;1.90;;;;;;;18.87;52.39;95628.86;110258;1241;69261;-65
2023/11/05 08:32:56;;;;;;;5.60;2.40;;;;;;;18.78;52.46;95628.66;110221;1241;69248;-65
2023/11/05 08:35:25;;;;;;;3.60;2.50;;;;;;;18.89;52.46;95632.27;110167;1242;60862;-65
2023/11/05 08:37:56;;;;;;;2.30;2.10;;;;;;;19.02;52.96;95643.79;110200;1240;60468;-64
2023/11/05 08:40:25;;;;;;;3.60;2.10;;;;;;;19.25;52.09;95652.61;110161;1240;72203;-63
2023/11/05 08:42:55;;;;;;;3.60;2.10;;;;;;;19.34;50.35;95650.02;110135;1244;69713;-64
2023/11/05 08:45:25;;;;;;;3.20;2.20;;;;;;;19.34;50.13;95644.35;110157;1242;69877;-66
2023/11/05 08:47:56;;;;;;;3.30;1.90;;;;;;;19.22;49.61;95652.74;110126;1242;60494;-65
2023/11/05 08:50:26;;;;;;;2.40;1.90;;;;;;;19.11;50.89;95644.25;110150;1242;60450;-64
2023/11/05 08:52:55;;;;;;;2.40;1.90;;;;;;;19.53;51.88;95638.45;110402;1241;73137;-64
2023/11/05 08:55:28;;;;;;;2.50;2.00;;;;;;;19.89;50.77;95634.06;110228;1241;67796;-66
2023/11/05 08:57:58;;;;;;;2.40;1.80;;;;;;;20.05;48.51;95636.17;110176;1240;69842;-64
2023/11/05 09:00:28;;;;;;;2.90;2.30;;;;;;;20.05;49.66;95640.88;110146;1240;60609;-65
2023/11/05 09:03:00;;;;;;;2.60;1.60;;;;;;;20.15;48.69;95632.48;110150;1242;60492;-65
2023/11/05 09:05:30;;;;;;;2.30;1.80;;;;;;;20.57;45.56;95633.83;110201;1240;72244;-63
2023/11/05 09:07:59;;;;;;;;;;;;;;;20.58;44.41;95631.77;110205;1244;69359;-64
2023/11/05 09:10:30;;;;;;;2.30;1.80;;;;;;;20.52;44.23;95630.39;110157;1242;68523;-64
2023/11/05 09:12:59;;;;;;;3.10;1.80;;;;;;;20.67;45.11;95632.89;110122;1240;60464;-65
2023/11/05 09:15:29;;;;;;;3.90;1.50;;;;;;;20.66;44.71;95627.30;110252;1241;60489;-65
2023/11/05 09:17:58;;;;;;;2.40;1.80;;;;;;;20.76;43.02;95614.87;110144;1242;72864;-63
2023/11/05 09:20:30;;;;;;;3.10;1.40;;;;;;;20.81;43.06;95611.16;108047;1240;2868208;-65
2023/11/05 09:23:01;;;;;;;3.10;1.50;;;;;;;20.79;42.56;95599.45;110249;1242;69987;-66
2023/11/05 09:25:34;;;;;;;2.00;1.30;;;;;;;20.91;43.18;95604.11;110160;1242;60482;-64
2023/11/05 09:28:03;;;;;;;2.60;1.20;;;;;;;21.20;42.15;95591.70;110303;1241;60431;-64
2023/11/05 09:30:33;;;;;;;1.80;1.50;;;;;;;21.50;42.10;95583.48;110297;1241;72416;-63
2023/11/05 09:33:03;;;;;;;1.60;1.40;;;;;;;21.70;41.04;95576.55;110152;1242;69271;-64
2023/11/05 09:35:32;;;;;;;3.90;2.70;;;;;;;21.66;40.30;95574.22;110238;1241;69185;-64
2023/11/05 09:38:03;;;;;;;1.80;1.40;;;;;;;20.99;40.50;95571.74;110230;1240;60950;-63
2023/11/05 09:40:33;;;;;;;3.70;1.70;;;;;;;20.11;40.66;95561.46;110209;1239;60478;-63
2023/11/05 09:43:05;;;;;;;2.10;1.60;;;;;;;19.22;43.10;95550.02;110298;1241;72240;-66
2023/11/05 09:45:36;;;;;;;2.10;1.40;;;;;;;18.58;44.50;95539.23;110246;1242;69787;-63
2023/11/05 09:48:07;;;;;;;2.20;1.60;;;;;;;17.88;46.04;95531.11;110234;1241;69900;-64
2023/11/05 09:50:38;;;;;;;1.40;1.30;;;;;;;17.38;47.17;95543.94;110217;1241;60807;-64
2023/11/05 09:53:10;;;;;;;2.60;1.40;;;;;;;17.64;47.49;95523.02;110322;1240;60489;-65
2023/11/05 09:55:45;;;;;;;2.60;1.70;;;;;;;17.91;45.95;95509.06;110299;1247;72044;-64
2023/11/05 09:58:15;;;;;;;1.60;1.40;;;;;;;18.06;45.31;95502.18;110256;1240;69466;-65
2023/11/05 10:00:44;;;;;;;;;;;;;;;18.77;44.61;95499.57;110253;1241;69710;-66
2023/11/05 10:03:14;;;;;;;2.10;1.30;;;;;;;19.73;42.14;95487.04;110247;1241;60627;-64
2023/11/05 10:05:46;;;;;;;2.10;1.10;;;;;;;20.43;40.73;95478.25;110335;1239;60434;-64
2023/11/05 10:08:15;;;;;;;1.80;1.20;;;;;;;21.10;41.06;95467.86;110268;1241;72125;-65
2023/11/05 10:10:44;;;;;;;1.70;1.10;;;;;;;21.98;38.97;95458.54;110306;1241;69795;-65
2023/11/05 10:13:16;;;;;;;1.10;0.70;;;;;;;22.53;36.19;95448.95;110153;1243;69924;-66
2023/11/05 10:15:45;;;;;;;1.10;1.00;;;;;;;22.20;35.30;95456.88;110110;1243;60555;-65
2023/11/05 10:18:19;;;;;;;1.30;0.90;;;;;;;21.90;35.67;95444.97;110084;1244;60664;-65
2023/11/05 10:20:50;;;;;;;1.30;0.90;;;;;;;21.59;35.96;95447.13;110085;1241;72895;-63
2023/11/05 10:23:19;;;;;;;1.30;0.90;;;;;;;20.98;36.78;95451.45;110059;1243;69265;-62
2023/11/05 10:25:51;;;;;;;1.10;0.90;;;;;;;20.31;37.58;95457.34;110083;1244;69596;-65
2023/11/05 10:28:23;;;;;;;1.50;1.10;;;;;;;19.89;38.04;95462.05;110054;1241;60530;-64
2023/11/05 10:30:54;;;;;;;1.20;1.00;;;;;;;19.46;38.86;95456.19;110089;1242;60557;-63
2023/11/05 10:33:31;;;;;;;1.90;1.10;;;;;;;19.37;39.63;95454.30;110089;1244;72725;-63
2023/11/05 10:36:01;;;;;;;1.40;1.10;;;;;;;19.77;39.95;95449.73;110072;1243;69376;-64
2023/11/05 10:38:30;;;;;;;2.20;1.10;;;;;;;20.47;38.92;95432.69;110075;1244;68423;-64
2023/11/05 10:40:59;;;;;;;1.30;1.00;;;;;;;20.76;38.00;95427.67;110094;1243;60548;-63
2023/11/05 10:43:29;;;;;;;;;;;;;;;20.59;38.02;95415.41;110115;1244;60454;-65
2023/11/05 10:45:59;;;;;;;1.20;0.80;;;;;;;20.28;38.42;95397.20;110115;1243;72795;-65
2023/11/05 10:48:28;;;;;;;1.90;1.40;;;;;;;19.83;39.12;95389.02;110056;1244;69864;-64
2023/11/05 10:51:00;;;;;;;3.20;1.10;;;;;;;19.21;40.08;95381.98;110090;1242;69829;-64
2023/11/05 10:53:29;;;;;;;1.80;1.40;;;;;;;18.78;40.58;95383.00;110076;1242;60440;-64
2023/11/05 10:55:58;;;;;;;1.80;1.30;;;;;;;18.38;41.24;95399.77;110059;1244;60503;-64
2023/11/05 10:58:39;;;;;;;1.80;1.50;;;;;;;18.09;42.63;95394.10;110084;1243;72041;-64
2023/11/05 11:01:14;;;;;;;1.40;1.00;;;;;;;17.89;43.14;95388.09;110104;1243;69294;-63
2023/11/05 11:03:44;;;;;;;2.20;1.60;;;;;;;17.79;43.20;95378.72;110062;1244;69324;-66
2023/11/05 11:06:15;;;;;;;4.10;1.30;;;;;;;17.56;43.79;95381.77;110050;1243;60483;-65
2023/11/05 11:09:30;;;;;;;1.90;1.10;;;;;;;17.24;44.16;95382.59;109856;1244;60433;-64
2023/11/05 11:12:34;;;;;;;3.20;1.20;;;;;;;16.86;44.81;95379.66;110136;1243;72072;-65
2023/11/05 11:15:12;;;;;;;1.50;1.20;;;;;;;16.60;45.83;95383.45;110156;1240;69432;-64
2023/11/05 11:17:41;;;;;;;2.70;1.30;;;;;;;16.43;46.39;95372.27;110137;1241;69843;-66
2023/11/05 11:20:15;;;;;;;2.00;1.40;;;;;;;16.30;46.77;95371.05;110140;1242;60542;-65
2023/11/05 11:22:46;;;;;;;3.00;1.50;;;;;;;16.23;47.24;95366.23;110165;1242;60432;-63
2023/11/05 11:25:17;;;;;;;3.00;1.60;;;;;;;16.14;47.74;95374.98;110165;1244;70711;-64
2023/11/05 11:27:50;;;;;;;2.30;1.50;;;;;;;16.05;47.98;95382.52;110135;1240;69186;-66
2023/11/05 11:30:21;;;;;;;2.00;1.40;;;;;;;15.93;48.02;95372.12;110135;1242;69861;-65
2023/11/05 11:32:49;;;;;;;4.00;2.70;;;;;;;15.90;49.14;95366.84;110168;1243;60496;-65
2023/11/05 11:35:21;;;;;;;4.00;2.60;;;;;;;15.99;49.10;95362.98;110222;1242;60495;-65
2023/11/05 11:37:50;;;;;;;1.80;1.60;;;;;;;16.00;49.08;95359.95;110301;1242;72133;-65